CST,Max TemperatureF,Mean TemperatureF,Min TemperatureF,Max Dew PointF,MeanDew PointF,Min DewpointF,Max Humidity, Mean Humidity, Min Humidity, Max Sea Level PressureIn, Mean Sea Level PressureIn, Min Sea Level PressureIn, Max VisibilityMiles, Mean VisibilityMiles, Min VisibilityMiles, Max Wind SpeedMPH, Mean Wind SpeedMPH, Max Gust SpeedMPH,PrecipitationIn, CloudCover, Events, WindDirDegrees
2012-11-1,53,42,30,32,26,19,80,61,41,29.98,29.90,29.84,10,10,10,16,7,21,0.00,3,,303
2012-11-2,44,35,26,28,27,23,87,71,46,30.16,30.08,29.98,10,10,10,9,5,,0.00,0,,11
2012-11-3,44,38,32,32,31,27,87,74,61,30.23,30.19,30.14,10,10,10,13,6,,0.00,7,,83
2012-11-4,44,38,33,34,32,30,87,74,61,30.25,30.21,30.17,10,10,2,5,1,,0.00,8,,100
2012-11-5,44,37,30,32,28,27,93,74,49,30.21,30.15,30.09,10,10,7,10,7,,0.00,3,,92
2012-11-6,37,34,30,37,33,27,100,93,80,30.09,29.91,29.83,10,4,0,12,7,,0.05,7,,177
2012-11-7,41,38,35,36,33,32,100,84,70,30.15,30.08,29.90,10,9,3,13,5,,0.00,8,,26
2012-11-8,50,42,35,36,34,32,87,76,58,30.16,30.09,30.02,10,10,10,16,8,21,0.00,2,,165
2012-11-9,51,42,33,41,38,32,93,80,67,30.05,29.99,29.93,10,7,2,14,9,17,0.00,5,,88
2012-11-10,68,57,46,54,50,43,93,69,49,29.90,29.79,29.70,10,9,3,26,16,32,0.00,3,,152
2012-11-11,62,47,30,54,43,23,94,81,55,29.99,29.79,29.67,10,9,3,33,20,40,0.68,7,,218
2012-11-12,30,26,23,23,19,16,80,74,69,30.33,30.14,29.98,10,10,7,22,15,30,0.00,6,,258
2012-11-13,37,29,21,25,21,16,93,72,48,30.47,30.41,30.33,10,10,10,8,6,,0.00,0,,197
2012-11-14,48,40,32,32,29,23,81,70,54,30.42,30.36,30.31,10,10,10,16,9,20,0.00,2,,155
2012-11-15,51,42,32,34,30,28,87,72,47,30.35,30.30,30.24,10,10,10,16,9,18,0.00,0,,174
2012-11-16,50,41,32,34,32,28,93,78,54,30.47,30.42,30.36,10,9,3,10,5,,0.00,0,,62
2012-11-17,53,42,32,36,32,28,100,76,47,30.48,30.43,30.39,10,8,3,15,8,,0.00,0,,133
2012-11-18,53,43,33,34,32,30,87,68,44,30.39,30.31,30.25,10,9,7,16,9,20,0.00,0,,137
2012-11-19,51,45,39,45,38,32,93,72,58,30.26,30.15,30.07,10,9,5,13,7,,0.00,6,,149
2012-11-20,46,42,35,45,42,36,100,93,87,30.18,30.14,30.06,7,2,0,8,2,,0.00,8,,302
2012-11-21,55,44,33,46,39,34,100,86,67,30.18,30.10,30.00,10,5,0,16,8,18,0.00,4,,175
2012-11-22,62,50,37,45,39,28,87,69,52,29.99,29.84,29.71,10,10,10,29,15,43,0.00,2,,208
2012-11-23,35,30,26,28,18,14,75,66,55,30.26,30.12,29.92,10,10,10,26,19,38,0.00,8,,295
2012-11-24,32,26,21,21,18,14,74,66,55,30.26,30.13,29.89,10,10,10,15,8,,0.00,6,,235
2012-11-25,37,30,23,25,22,19,86,71,56,30.11,29.93,29.83,10,10,10,13,7,,0.00,1,,270
2012-11-26,32,24,17,21,16,9,86,68,43,30.38,30.26,30.11,10,10,10,13,6,17,0.00,2,,299
2012-11-27,32,22,12,16,12,9,86,63,41,30.39,30.30,30.21,10,10,10,13,5,,0.00,3,,216
2012-11-28,42,32,21,23,19,14,86,63,39,30.36,30.28,30.19,10,10,10,13,6,16,0.00,0,,225
2012-11-29,48,38,28,32,28,23,87,71,53,30.20,30.10,30.02,10,10,10,12,8,,0.00,2,,137
2012-11-30,44,38,32,36,33,32,100,84,71,30.14,30.09,30.01,10,5,2,15,10,16,0.00,6,,56